Time;durP1;ratioP1;P1;durP2;ratioP2;P2;SDS_P1;SDS_P2;PMS_P1;PMS_P2;Temp;Humidity;BMP_temperature;BMP_pressure;BME280_temperature;BME280_humidity;BME280_pressure;Samples;Min_cycle;Max_cycle;Signal;HPM_P1;HPM_P2
2022/09/11 00:01:48;;;;;;;8.38;7.28;;;;;;;18.94;68.33;97327.53;4941918;28;20184;-79
2022/09/11 00:04:13;;;;;;;11.98;8.43;;;;;;;18.89;68.54;97321.28;4935749;28;20588;-79
2022/09/11 00:06:39;;;;;;;10.00;7.55;;;;;;;18.87;68.30;97322.66;4969620;28;20254;-80
2022/09/11 00:09:05;;;;;;;9.63;7.93;;;;;;;18.90;68.50;97327.31;4955538;28;20336;-79
2022/09/11 00:11:53;;;;;;;8.45;7.45;;;;;;;18.96;68.01;97328.03;4971852;28;20664;-79
2022/09/11 00:14:18;;;;;;;10.52;8.30;;;;;;;18.96;68.18;97320.09;4966232;28;20382;-79
2022/09/11 00:16:45;;;;;;;11.95;8.10;;;;;;;18.89;68.18;97323.91;4952905;28;20323;-79
2022/09/11 00:19:14;;;;;;;10.82;7.82;;;;;;;18.78;68.09;97330.44;4938317;28;20758;-79
2022/09/11 00:21:40;;;;;;;11.73;7.72;;;;;;;18.86;68.26;97327.13;4945282;28;20076;-79
2022/09/11 00:24:08;;;;;;;10.02;8.15;;;;;;;18.84;68.59;97329.28;4937695;28;20218;-79
2022/09/11 00:26:34;;;;;;;10.60;8.85;;;;;;;18.88;68.34;97329.47;4977535;28;20620;-79
2022/09/11 00:29:00;;;;;;;10.50;9.30;;;;;;;18.85;68.48;97322.16;4975800;28;20206;-79
2022/09/11 00:31:36;;;;;;;10.63;8.85;;;;;;;18.64;69.28;97325.16;4960034;28;20391;-79
2022/09/11 00:34:01;;;;;;;11.05;8.60;;;;;;;18.86;68.32;97326.38;4956891;28;20364;-80
2022/09/11 00:36:30;;;;;;;12.82;8.65;;;;;;;18.76;68.55;97324.66;4973091;28;20288;-79
2022/09/11 00:38:56;;;;;;;9.95;8.90;;;;;;;18.86;68.34;97331.63;4954648;28;20094;-79
2022/09/11 00:41:29;;;;;;;10.65;9.55;;;;;;;18.87;68.24;97333.97;4938850;28;20292;-79
2022/09/11 00:44:16;;;;;;;10.25;8.35;;;;;;;18.60;69.14;97334.72;4947614;28;20286;-79
2022/09/11 00:46:53;;;;;;;9.02;7.78;;;;;;;18.62;68.73;97335.22;4970309;28;20203;-79
2022/09/11 00:49:25;;;;;;;10.35;8.93;;;;;;;18.70;68.77;97336.41;4954242;28;20355;-79
2022/09/11 00:52:07;;;;;;;12.10;8.80;;;;;;;18.60;68.84;97342.63;4953117;28;20318;-79
2022/09/11 00:55:02;;;;;;;9.95;8.93;;;;;;;18.58;68.92;97338.75;4943281;28;20189;-79
2022/09/11 00:57:32;;;;;;;10.20;9.13;;;;;;;18.62;68.63;97350.25;4954708;28;20298;-79
2022/09/11 01:00:04;;;;;;;10.38;9.35;;;;;;;18.61;68.60;97348.69;4952946;28;20576;-79
2022/09/11 01:02:32;;;;;;;10.10;8.85;;;;;;;18.68;68.28;97343.84;4938029;28;20208;-80
2022/09/11 01:04:58;;;;;;;10.55;9.23;;;;;;;18.70;68.47;97341.69;4959041;28;20211;-80
2022/09/11 01:07:37;;;;;;;13.15;9.57;;;;;;;18.70;68.52;97344.31;4972056;28;20135;-80
2022/09/11 01:10:04;;;;;;;11.32;8.38;;;;;;;18.73;68.07;97335.81;4955299;28;20185;-80
2022/09/11 01:12:51;;;;;;;10.50;8.80;;;;;;;18.60;68.27;97339.22;4951978;28;20745;-80
2022/09/11 01:15:28;;;;;;;11.75;8.93;;;;;;;18.61;68.68;97344.22;4961628;28;20290;-80
2022/09/11 01:18:00;;;;;;;10.75;9.63;;;;;;;18.77;68.48;97347.34;4939264;28;20664;-80
2022/09/11 01:20:44;;;;;;;12.15;9.57;;;;;;;18.56;68.93;97354.06;4953749;28;20299;-80
2022/09/11 01:23:48;;;;;;;11.98;9.40;;;;;;;18.55;69.00;97352.50;4954390;28;20196;-80
2022/09/11 01:26:31;;;;;;;11.30;9.10;;;;;;;18.56;68.73;97354.06;4971242;28;20279;-80
2022/09/11 01:29:12;;;;;;;10.27;9.00;;;;;;;18.56;68.84;97348.78;4951512;28;20274;-80
2022/09/11 01:31:57;;;;;;;14.48;10.00;;;;;;;18.54;68.43;97351.72;4951972;28;20216;-80
2022/09/11 01:34:34;;;;;;;14.93;9.77;;;;;;;18.58;68.60;97346.66;4953236;28;20172;-80
2022/09/11 01:37:34;;;;;;;11.73;8.98;;;;;;;18.67;68.62;97347.53;4970927;28;20196;-80
2022/09/11 01:40:04;;;;;;;12.45;9.27;;;;;;;18.59;68.41;97354.25;4946369;28;20177;-80
2022/09/11 01:42:31;;;;;;;10.07;8.98;;;;;;;18.61;68.64;97356.59;4941310;28;20586;-80
2022/09/11 01:44:57;;;;;;;12.68;8.90;;;;;;;18.65;67.86;97362.88;4952392;28;20200;-81
2022/09/11 01:47:23;;;;;;;10.70;8.32;;;;;;;18.60;68.30;97347.91;4970112;28;20211;-80
2022/09/11 01:49:57;;;;;;;12.10;9.45;;;;;;;18.48;68.45;97351.03;4966898;28;20708;-81
2022/09/11 01:52:30;;;;;;;10.15;8.90;;;;;;;18.49;68.45;97359.72;4952204;28;20282;-80
2022/09/11 01:55:12;;;;;;;12.90;9.90;;;;;;;18.48;68.56;97353.66;4937302;28;20173;-80
2022/09/11 01:57:56;;;;;;;11.48;9.20;;;;;;;18.53;68.26;97350.94;4938647;28;20270;-80
2022/09/11 02:00:21;;;;;;;12.98;10.55;;;;;;;18.63;68.47;97352.63;4954714;28;20248;-80
2022/09/11 02:02:51;;;;;;;12.98;10.73;;;;;;;18.48;68.69;97353.66;4965871;28;20220;-81
2022/09/11 02:05:25;;;;;;;10.77;9.07;;;;;;;18.43;69.05;97340.56;4951762;28;20192;-81
2022/09/11 02:11:33;;;;;;;11.63;10.43;;;;;;;18.50;68.59;97350.75;4969670;28;20196;-80
2022/09/11 02:14:20;;;;;;;11.73;9.48;;;;;;;18.42;69.19;97354.03;4951178;28;20296;-80
2022/09/11 02:17:02;;;;;;;11.45;9.27;;;;;;;18.41;68.88;97352.50;4967989;28;20717;-80
2022/09/11 02:19:28;;;;;;;13.73;10.35;;;;;;;18.57;69.15;97363.53;4968795;28;20257;-80
2022/09/11 02:21:56;;;;;;;12.63;9.60;;;;;;;18.62;68.79;97366.09;4950977;28;20187;-80
2022/09/11 02:24:24;;;;;;;15.13;11.90;;;;;;;18.61;69.04;97357.41;4950991;28;20161;-80
2022/09/11 02:26:57;;;;;;;13.65;10.52;;;;;;;18.58;68.72;97365.13;4934552;28;20283;-81
2022/09/11 02:29:23;;;;;;;11.70;10.10;;;;;;;18.75;68.38;97361.88;4966591;28;20286;-80
2022/09/11 02:31:48;;;;;;;13.88;10.82;;;;;;;18.67;68.79;97376.53;4967881;28;20683;-80
2022/09/11 02:34:14;;;;;;;12.73;10.70;;;;;;;18.65;68.71;97376.84;4950353;28;20112;-80
2022/09/11 02:37:09;;;;;;;11.40;9.32;;;;;;;18.66;68.89;97381.03;4933978;28;20742;-80
2022/09/11 02:39:51;;;;;;;13.20;9.88;;;;;;;18.52;69.14;97377.59;4914931;28;20127;-80
2022/09/11 02:42:35;;;;;;;11.20;9.23;;;;;;;18.55;69.21;97384.16;4934812;28;20212;-80
2022/09/11 02:45:16;;;;;;;10.48;9.10;;;;;;;18.65;68.82;97389.25;4975431;28;20203;-80
2022/09/11 02:48:18;;;;;;;10.23;9.20;;;;;;;18.55;69.16;97382.28;4969159;28;20376;-80
2022/09/11 02:50:57;;;;;;;10.88;9.73;;;;;;;18.60;69.16;97386.69;4970383;28;20244;-80
2022/09/11 02:53:32;;;;;;;10.10;7.82;;;;;;;18.71;68.80;97388.88;4969862;28;20181;-81
2022/09/11 02:56:25;;;;;;;11.73;9.60;;;;;;;18.68;68.66;97383.41;4966143;28;20246;-80
2022/09/11 02:59:00;;;;;;;11.65;9.07;;;;;;;18.68;68.47;97389.44;4934676;28;20282;-80
2022/09/11 03:01:26;;;;;;;11.48;9.68;;;;;;;18.82;68.47;97376.28;4933701;28;20322;-80
2022/09/11 03:03:52;;;;;;;10.38;9.30;;;;;;;18.82;68.53;97378.94;4934867;28;20183;-80
2022/09/11 03:06:20;;;;;;;10.45;9.35;;;;;;;18.74;68.30;97386.72;4953596;28;20184;-80
2022/09/11 03:08:46;;;;;;;10.68;9.50;;;;;;;18.79;68.36;97376.84;4954179;28;20629;-79
2022/09/11 03:11:14;;;;;;;15.23;9.98;;;;;;;18.85;68.02;97381.00;4969469;28;20280;-80
2022/09/11 03:13:39;;;;;;;10.63;8.88;;;;;;;18.87;68.16;97396.53;4942779;28;20173;-80
2022/09/11 03:16:05;;;;;;;11.13;9.40;;;;;;;18.87;68.32;97381.47;4946254;28;20622;-80
2022/09/11 03:18:32;;;;;;;11.90;10.23;;;;;;;18.86;68.33;97379.91;4949848;28;20709;-79
2022/09/11 03:20:57;;;;;;;12.93;11.35;;;;;;;18.83;68.44;97382.34;4949697;28;20365;-80
2022/09/11 03:23:22;;;;;;;11.40;10.18;;;;;;;18.85;68.38;97381.00;4935121;28;20248;-80
2022/09/11 03:25:48;;;;;;;14.48;10.15;;;;;;;18.85;68.21;97370.44;4935109;28;20208;-80
2022/09/11 03:28:13;;;;;;;12.65;9.30;;;;;;;18.85;68.13;97378.34;4949666;28;20583;-80
2022/09/11 03:30:40;;;;;;;11.52;9.85;;;;;;;18.77;68.09;97381.63;4949362;28;20650;-80
2022/09/11 03:33:06;;;;;;;11.85;9.70;;;;;;;18.79;67.88;97376.84;4949346;28;20214;-80
2022/09/11 03:35:32;;;;;;;12.90;10.95;;;;;;;18.82;67.84;97378.13;4944128;28;20200;-80
2022/09/11 03:37:57;;;;;;;11.90;9.65;;;;;;;18.74;67.90;97376.94;4949296;28;20213;-79
2022/09/11 03:40:22;;;;;;;16.70;10.85;;;;;;;18.67;67.90;97368.63;4949566;28;20207;-80
2022/09/11 03:42:48;;;;;;;12.95;10.45;;;;;;;18.65;67.91;97368.16;4967222;28;20263;-80
2022/09/11 03:45:13;;;;;;;13.18;10.85;;;;;;;18.64;67.81;97382.41;4974719;28;20101;-79
2022/09/11 03:47:39;;;;;;;13.02;11.38;;;;;;;18.57;68.08;97376.72;4968859;28;20219;-79
2022/09/11 03:50:09;;;;;;;12.40;9.68;;;;;;;18.51;68.08;97389.22;4952728;28;20202;-79
2022/09/11 03:52:35;;;;;;;12.00;10.68;;;;;;;18.47;68.45;97385.59;4949394;28;20260;-80
2022/09/11 03:55:01;;;;;;;13.50;10.43;;;;;;;18.48;68.37;97395.06;4938859;28;20199;-79
2022/09/11 03:57:26;;;;;;;12.90;10.70;;;;;;;18.43;68.65;97398.56;4967490;28;20638;-80
2022/09/11 03:59:51;;;;;;;11.82;9.52;;;;;;;18.42;68.53;97401.50;4919148;28;20212;-79
2022/09/11 04:02:17;;;;;;;12.50;10.73;;;;;;;18.41;68.49;97398.09;4950117;28;20184;-80
2022/09/11 04:04:43;;;;;;;15.30;11.05;;;;;;;18.38;68.73;97405.78;4951046;28;20270;-80
2022/09/11 04:07:08;;;;;;;18.73;12.23;;;;;;;18.37;68.73;97410.28;4967168;28;20280;-80
2022/09/11 04:09:34;;;;;;;13.38;10.88;;;;;;;18.38;68.82;97417.13;4965647;28;20583;-80
2022/09/11 04:11:59;;;;;;;13.82;10.98;;;;;;;18.36;68.75;97408.72;4935059;28;20684;-79
2022/09/11 04:14:24;;;;;;;15.10;11.98;;;;;;;18.39;69.12;97408.16;4967205;28;20273;-80
2022/09/11 04:16:50;;;;;;;14.70;11.90;;;;;;;18.38;68.92;97417.13;4965394;28;20712;-79
2022/09/11 04:19:16;;;;;;;13.20;11.80;;;;;;;18.43;68.70;97418.88;4951045;28;20180;-79
2022/09/11 04:21:41;;;;;;;15.93;12.45;;;;;;;18.39;68.92;97412.66;4965770;28;20196;-80
2022/09/11 04:24:08;;;;;;;14.27;11.60;;;;;;;18.52;68.60;97412.69;4967654;28;20302;-80
2022/09/11 04:26:33;;;;;;;14.48;11.45;;;;;;;18.57;68.44;97413.66;4950505;28;20267;-80
2022/09/11 04:28:59;;;;;;;17.33;12.07;;;;;;;18.49;68.63;97412.44;4965566;28;20237;-80
2022/09/11 04:31:26;;;;;;;12.93;11.48;;;;;;;18.52;68.44;97414.50;4965564;28;20613;-79
2022/09/11 04:33:53;;;;;;;14.35;11.38;;;;;;;18.48;68.57;97416.94;4967011;28;20212;-80
2022/09/11 04:36:20;;;;;;;12.68;10.75;;;;;;;18.45;68.80;97417.50;4950800;28;20226;-80
2022/09/11 04:38:46;;;;;;;15.45;11.70;;;;;;;18.44;68.64;97417.81;4951507;28;20267;-79
2022/09/11 04:41:13;;;;;;;13.75;10.93;;;;;;;18.41;68.45;97424.44;4950668;28;20258;-80
2022/09/11 04:43:39;;;;;;;13.02;11.13;;;;;;;18.41;68.85;97431.59;4951412;28;20278;-81
2022/09/11 04:46:15;;;;;;;12.43;10.20;;;;;;;18.31;68.84;97417.47;4960509;28;20251;-79
2022/09/11 04:48:45;;;;;;;12.65;10.00;;;;;;;18.36;68.59;97418.47;4948510;28;20381;-79
2022/09/11 04:51:19;;;;;;;12.95;11.20;;;;;;;18.34;68.50;97416.91;4951360;28;20184;-79
2022/09/11 04:53:44;;;;;;;14.32;11.65;;;;;;;18.46;68.54;97418.31;4935153;28;20496;-79
2022/09/11 04:56:13;;;;;;;12.13;10.50;;;;;;;18.45;68.52;97422.00;4947745;28;20349;-80
2022/09/11 04:58:39;;;;;;;12.70;10.43;;;;;;;18.49;68.29;97426.44;4949125;28;20249;-79
2022/09/11 05:01:15;;;;;;;12.75;11.32;;;;;;;18.45;68.26;97430.69;4933581;28;20178;-79
2022/09/11 05:03:42;;;;;;;12.27;10.88;;;;;;;18.60;68.01;97434.16;4954984;28;20203;-79
2022/09/11 05:06:09;;;;;;;11.82;10.02;;;;;;;18.49;68.17;97442.25;4939746;28;20453;-80
2022/09/11 05:08:35;;;;;;;14.95;12.50;;;;;;;18.52;68.43;97439.03;4951954;28;20361;-80
2022/09/11 05:11:04;;;;;;;13.73;11.32;;;;;;;18.58;68.18;97445.00;4954497;28;20237;-79
2022/09/11 05:13:30;;;;;;;16.00;11.43;;;;;;;18.56;68.20;97443.72;4954409;28;20207;-80
2022/09/11 05:16:21;;;;;;;15.90;12.98;;;;;;;18.28;68.95;97449.72;4959287;28;20223;-79
2022/09/11 05:18:50;;;;;;;15.73;12.50;;;;;;;18.47;68.53;97439.13;4936242;28;20697;-80
2022/09/11 05:21:16;;;;;;;16.13;12.55;;;;;;;18.44;68.47;97444.97;4961124;28;20700;-80
2022/09/11 05:23:46;;;;;;;13.15;11.05;;;;;;;18.40;68.40;97459.00;4952327;28;20200;-79
2022/09/11 05:26:23;;;;;;;15.98;12.40;;;;;;;18.32;68.90;97455.19;4968610;28;20708;-79
2022/09/11 05:28:56;;;;;;;13.95;11.32;;;;;;;18.38;68.96;97464.56;4921606;28;20256;-80
2022/09/11 05:31:22;;;;;;;15.50;11.18;;;;;;;18.51;68.91;97463.06;4943147;28;20227;-79
2022/09/11 05:33:48;;;;;;;17.73;13.23;;;;;;;18.51;68.78;97450.66;4920914;28;20669;-80
2022/09/11 05:36:14;;;;;;;18.02;12.23;;;;;;;18.52;68.62;97467.25;4967476;28;20281;-80
2022/09/11 05:38:40;;;;;;;17.98;13.18;;;;;;;18.53;68.72;97472.22;4921031;28;20658;-79
2022/09/11 05:41:08;;;;;;;14.43;12.35;;;;;;;18.50;68.77;97470.16;4975864;28;20296;-79
2022/09/11 05:43:34;;;;;;;16.23;12.80;;;;;;;18.57;68.70;97482.22;4973560;28;20329;-79
2022/09/11 05:45:59;;;;;;;19.27;14.27;;;;;;;18.53;69.01;97482.78;4954265;28;20283;-79
2022/09/11 05:48:29;;;;;;;18.67;14.13;;;;;;;18.44;69.09;97489.78;4964795;28;20854;-79
2022/09/11 05:50:58;;;;;;;15.95;13.57;;;;;;;18.58;68.78;97494.34;4956951;28;20177;-79
2022/09/11 05:53:23;;;;;;;18.67;14.13;;;;;;;18.57;68.73;97488.25;4937406;28;20227;-79
2022/09/11 05:55:50;;;;;;;20.05;15.38;;;;;;;18.62;68.64;97498.72;4934592;28;20148;-79
2022/09/11 05:58:16;;;;;;;18.20;14.38;;;;;;;18.68;68.49;97494.94;4952757;28;20711;-79
2022/09/11 06:00:47;;;;;;;20.00;14.68;;;;;;;18.67;68.62;97497.88;4951780;28;20290;-79
2022/09/11 06:03:17;;;;;;;17.52;13.32;;;;;;;18.66;68.57;97502.38;4951258;28;20284;-79
2022/09/11 06:05:43;;;;;;;19.25;14.07;;;;;;;18.86;68.25;97498.63;4968341;28;20243;-79
2022/09/11 06:08:09;;;;;;;18.45;14.63;;;;;;;18.78;68.27;97494.00;4920384;28;20278;-79
2022/09/11 06:10:46;;;;;;;17.98;13.88;;;;;;;18.75;68.14;97499.84;4949766;28;20187;-79
2022/09/11 06:13:12;;;;;;;18.77;14.80;;;;;;;18.89;68.32;97499.91;4953250;28;20284;-79
2022/09/11 06:15:45;;;;;;;14.95;12.48;;;;;;;18.78;68.40;97504.56;4936620;28;20730;-79
2022/09/11 06:18:11;;;;;;;18.38;13.85;;;;;;;18.95;68.18;97495.31;4936620;28;20106;-80
2022/09/11 06:20:36;;;;;;;17.42;13.85;;;;;;;19.01;67.76;97507.38;4950604;28;20166;-79
2022/09/11 06:23:01;;;;;;;16.42;13.18;;;;;;;19.07;68.16;97506.19;4950895;28;20189;-79
2022/09/11 06:25:27;;;;;;;14.57;13.00;;;;;;;19.17;67.66;97510.50;4935931;28;20531;-79
2022/09/11 06:27:52;;;;;;;21.02;13.05;;;;;;;19.21;67.63;97507.00;4934300;28;20579;-79
2022/09/11 06:30:17;;;;;;;17.23;12.38;;;;;;;19.24;67.59;97511.69;4933158;28;20646;-79
2022/09/11 06:32:43;;;;;;;14.20;12.63;;;;;;;19.19;67.54;97506.50;4937347;28;20646;-80
2022/09/11 06:35:09;;;;;;;16.40;12.75;;;;;;;19.17;67.83;97511.28;4952194;28;20272;-79
2022/09/11 06:37:35;;;;;;;19.20;14.20;;;;;;;19.16;67.67;97515.00;4952985;28;20168;-80
2022/09/11 06:40:01;;;;;;;17.25;13.18;;;;;;;19.22;67.55;97516.47;4951505;28;20365;-80
2022/09/11 06:42:26;;;;;;;16.35;12.73;;;;;;;19.28;67.57;97519.81;4954557;28;20212;-79
2022/09/11 06:44:52;;;;;;;16.00;12.82;;;;;;;19.28;67.50;97512.66;4970707;28;20193;-79
2022/09/11 06:47:17;;;;;;;16.70;13.20;;;;;;;19.31;67.80;97521.84;4957012;28;20277;-79
2022/09/11 06:49:43;;;;;;;17.42;13.02;;;;;;;19.37;67.64;97523.34;4976957;28;20236;-80
2022/09/11 06:52:08;;;;;;;14.30;12.80;;;;;;;19.44;67.57;97522.94;4938144;28;20243;-80
2022/09/11 06:54:33;;;;;;;15.27;12.70;;;;;;;19.59;67.51;97532.44;4924014;28;20273;-79
2022/09/11 06:56:59;;;;;;;14.68;11.70;;;;;;;19.68;67.04;97529.91;4956930;28;20169;-79
2022/09/11 06:59:24;;;;;;;14.98;12.55;;;;;;;19.71;67.23;97530.09;4955920;28;20191;-80
2022/09/11 07:01:50;;;;;;;17.33;12.93;;;;;;;19.75;66.91;97531.09;4940151;28;20289;-80
2022/09/11 07:04:15;;;;;;;14.55;12.45;;;;;;;19.89;66.05;97535.56;4938538;28;20297;-80
2022/09/11 07:06:41;;;;;;;11.73;10.52;;;;;;;19.96;66.09;97536.75;4925989;28;20216;-80
2022/09/11 07:09:10;;;;;;;14.38;11.75;;;;;;;19.88;66.16;97537.44;4952909;28;20204;-79
2022/09/11 07:11:35;;;;;;;15.70;11.70;;;;;;;19.98;65.95;97531.16;4958229;28;20154;-80
2022/09/11 07:14:05;;;;;;;14.27;11.75;;;;;;;20.05;65.27;97538.66;4939404;28;20199;-80
2022/09/11 07:16:33;;;;;;;13.50;11.45;;;;;;;19.97;65.65;97535.66;4977882;28;20195;-80
2022/09/11 07:18:59;;;;;;;15.70;12.43;;;;;;;20.06;66.03;97550.81;4979291;28;20214;-79
2022/09/11 07:21:26;;;;;;;13.65;11.23;;;;;;;20.06;65.57;97545.53;4959256;28;20328;-80
2022/09/11 07:23:54;;;;;;;14.77;12.50;;;;;;;20.09;65.28;97556.28;4968906;28;20307;-80
2022/09/11 07:26:21;;;;;;;14.80;12.18;;;;;;;20.11;65.07;97550.72;4983073;28;20282;-80
2022/09/11 07:28:50;;;;;;;13.90;10.38;;;;;;;20.12;64.90;97544.34;4985854;28;20200;-80
2022/09/11 07:31:18;;;;;;;11.55;10.35;;;;;;;20.11;65.16;97556.00;4978120;28;20207;-80
2022/09/11 07:33:45;;;;;;;13.70;11.38;;;;;;;20.14;64.99;97553.53;4964085;28;20216;-80
2022/09/11 07:36:11;;;;;;;14.80;12.25;;;;;;;20.18;64.76;97559.78;4951014;28;20161;-79
2022/09/11 07:38:45;;;;;;;13.05;10.88;;;;;;;20.15;64.38;97556.97;4956278;28;20261;-80
2022/09/11 07:41:12;;;;;;;14.13;12.00;;;;;;;20.21;64.05;97558.44;4951575;28;20173;-80
2022/09/11 07:43:38;;;;;;;12.40;9.65;;;;;;;20.20;64.56;97560.28;4946503;28;20576;-80
2022/09/11 07:48:37;;;;;;;12.43;10.80;;;;;;;20.24;65.16;97560.47;4932612;28;20286;-79
2022/09/11 07:51:04;;;;;;;12.32;9.88;;;;;;;20.36;64.64;97565.25;4903703;28;20198;-79
2022/09/11 07:53:45;;;;;;;13.70;9.82;;;;;;;20.31;64.17;97568.78;4910296;28;20596;-79
2022/09/11 07:56:13;;;;;;;11.18;9.35;;;;;;;20.43;63.68;97565.63;4928950;28;20254;-79
2022/09/11 07:58:40;;;;;;;11.05;9.63;;;;;;;20.41;63.77;97559.84;4965495;23;20200;-78
2022/09/11 08:01:10;;;;;;;10.38;9.10;;;;;;;20.41;63.73;97567.78;5132904;23;20400;-79
2022/09/11 08:03:36;;;;;;;11.32;9.55;;;;;;;20.42;63.01;97566.69;5117566;23;20192;-79
2022/09/11 08:06:04;;;;;;;11.95;9.57;;;;;;;20.35;63.77;97579.53;4934698;23;20216;-79
2022/09/11 08:08:30;;;;;;;10.32;9.30;;;;;;;20.42;63.25;97573.84;4967102;23;20266;-79
2022/09/11 08:13:31;;;;;;;10.85;8.15;;;;;;;20.36;63.50;97575.84;4965736;23;20448;-79
2022/09/11 08:15:56;;;;;;;12.75;10.00;;;;;;;20.42;62.98;97573.84;4898352;28;20195;-79
2022/09/11 08:18:22;;;;;;;10.55;9.45;;;;;;;20.48;62.59;97575.31;5021178;23;20290;-80
2022/09/11 08:25:49;;;;;;;9.95;8.48;;;;;;;20.85;60.98;97570.78;4907653;28;20222;-79
2022/09/11 08:28:15;;;;;;;8.95;8.07;;;;;;;20.99;60.16;97578.66;4886139;28;20203;-79
2022/09/11 08:30:40;;;;;;;9.57;8.63;;;;;;;21.17;59.87;97582.19;4904340;28;20054;-79
2022/09/11 08:33:08;;;;;;;8.63;7.75;;;;;;;21.17;59.58;97582.97;4876445;28;20669;-80
2022/09/11 08:35:34;;;;;;;8.05;7.25;;;;;;;21.28;58.90;97578.19;4861962;28;20257;-80
2022/09/11 08:38:00;;;;;;;8.82;7.80;;;;;;;21.39;58.28;97584.03;4883410;28;20212;-82
2022/09/11 08:40:27;;;;;;;8.18;7.30;;;;;;;21.28;59.48;97583.47;4878470;28;20128;-79
2022/09/11 08:42:54;;;;;;;8.32;6.82;;;;;;;21.21;58.25;97583.13;4900392;28;20196;-79
2022/09/11 08:45:22;;;;;;;9.25;6.93;;;;;;;20.97;60.00;97584.25;4882192;28;20206;-79
2022/09/11 08:47:53;;;;;;;6.93;6.03;;;;;;;20.97;59.69;97584.25;4882701;28;20197;-79
2022/09/11 08:50:25;;;;;;;6.65;6.05;;;;;;;20.87;59.48;97589.78;4879462;28;20196;-80
2022/09/11 08:52:53;;;;;;;8.18;7.28;;;;;;;20.89;61.32;97591.06;4881177;28;20203;-79
2022/09/11 08:55:46;;;;;;;9.13;6.80;;;;;;;20.57;62.44;97582.22;4915432;28;20136;-80
2022/09/11 08:58:23;;;;;;;8.07;6.60;;;;;;;20.69;61.03;97589.66;4860513;28;20372;-79
2022/09/11 09:00:54;;;;;;;7.25;6.43;;;;;;;20.72;60.77;97591.72;4906752;28;20244;-79
2022/09/11 09:03:38;;;;;;;9.80;7.00;;;;;;;20.92;61.11;97582.50;4880770;28;20208;-79
2022/09/11 09:06:38;;;;;;;8.95;6.45;;;;;;;21.44;58.63;97584.66;4868011;28;20638;-79
2022/09/11 09:09:28;;;;;;;7.75;6.97;;;;;;;21.93;60.95;97587.34;4900369;28;20235;-80
2022/09/11 09:12:21;;;;;;;7.43;6.15;;;;;;;22.26;56.01;97581.66;4900481;28;20283;-79
2022/09/11 09:14:58;;;;;;;7.60;6.55;;;;;;;22.12;56.43;97586.28;4868092;28;20192;-80
2022/09/11 09:17:27;;;;;;;7.03;5.85;;;;;;;21.94;55.70;97588.91;4871965;28;20199;-80
2022/09/11 09:20:13;;;;;;;6.68;5.80;;;;;;;21.89;55.23;97591.72;4875776;28;20211;-79
2022/09/11 09:22:43;;;;;;;5.97;5.38;;;;;;;21.83;56.15;97588.44;4873009;28;20188;-80
2022/09/11 09:25:12;;;;;;;7.03;5.97;;;;;;;21.72;57.35;97592.44;4874884;28;20277;-79
2022/09/11 09:27:46;;;;;;;6.03;5.32;;;;;;;21.60;56.57;97587.72;4854350;28;20698;-79
2022/09/11 09:30:23;;;;;;;5.22;4.72;;;;;;;21.48;56.22;97592.81;4866252;28;20283;-79
2022/09/11 09:33:27;;;;;;;5.93;5.35;;;;;;;21.32;56.55;97589.75;4885161;28;20646;-79
2022/09/11 09:35:56;;;;;;;6.10;5.50;;;;;;;21.84;55.27;97589.97;4822527;29;20198;-79
2022/09/11 09:38:27;;;;;;;5.63;5.00;;;;;;;22.03;55.48;97589.69;4820171;29;20694;-79
2022/09/11 09:41:17;;;;;;;5.38;4.85;;;;;;;21.85;56.59;97594.19;4818609;29;20784;-80
2022/09/11 09:44:00;;;;;;;5.60;4.90;;;;;;;22.09;54.92;97598.31;4818964;29;20238;-80
2022/09/11 09:46:26;;;;;;;5.35;4.85;;;;;;;21.93;55.48;97597.16;4817980;29;20304;-80
2022/09/11 09:48:51;;;;;;;6.43;5.03;;;;;;;21.81;56.35;97592.47;4820289;29;20259;-80
2022/09/11 09:51:17;;;;;;;5.35;4.85;;;;;;;21.77;56.88;97589.66;4809756;29;20299;-80
2022/09/11 09:54:15;;;;;;;7.30;5.13;;;;;;;21.41;57.99;97592.44;4770960;29;20192;-80
2022/09/11 09:56:42;;;;;;;5.65;5.15;;;;;;;21.80;57.33;97589.03;4774312;29;20211;-80
2022/09/11 09:59:07;;;;;;;5.60;5.05;;;;;;;22.25;56.05;97596.00;4789544;29;20287;-80
2022/09/11 10:01:43;;;;;;;5.70;4.18;;;;;;;22.56;54.87;97592.47;4818362;29;20387;-80
2022/09/11 10:04:20;;;;;;;4.65;4.25;;;;;;;22.97;53.89;97585.88;4800001;29;20218;-80
2022/09/11 10:06:46;;;;;;;5.28;4.80;;;;;;;23.24;52.99;97586.63;4783753;29;20423;-80
2022/09/11 10:09:27;;;;;;;4.93;4.43;;;;;;;23.38;52.18;97593.28;4803406;28;20241;-80
2022/09/11 10:11:55;;;;;;;5.30;4.80;;;;;;;23.53;51.37;97586.69;4848979;28;20278;-79
2022/09/11 10:14:21;;;;;;;5.50;4.28;;;;;;;23.70;50.63;97585.81;4860349;28;20195;-79
2022/09/11 10:16:49;;;;;;;4.82;4.43;;;;;;;23.87;50.29;97582.34;4862441;28;20608;-79
2022/09/11 10:19:41;;;;;;;4.38;3.97;;;;;;;24.08;50.57;97581.59;4878911;28;20228;-79
2022/09/11 10:22:29;;;;;;;4.05;3.67;;;;;;;24.49;51.00;97588.81;4871821;28;20220;-80
2022/09/11 10:24:59;;;;;;;4.25;3.85;;;;;;;24.59;48.64;97582.34;4879022;28;20211;-79
2022/09/11 10:27:26;;;;;;;4.30;3.85;;;;;;;24.64;47.86;97571.50;4900905;28;20208;-79
2022/09/11 10:29:53;;;;;;;4.35;3.42;;;;;;;24.47;47.76;97580.38;4863773;28;20361;-79
2022/09/11 10:32:19;;;;;;;4.80;4.32;;;;;;;24.16;47.26;97580.72;4880720;28;20235;-79
2022/09/11 10:34:44;;;;;;;5.03;3.95;;;;;;;23.45;51.41;97584.06;4876201;28;20260;-79
2022/09/11 10:37:13;;;;;;;3.75;3.45;;;;;;;23.79;48.18;97582.34;4880643;28;20275;-79
2022/09/11 10:39:40;;;;;;;3.60;3.30;;;;;;;23.84;51.87;97574.22;4894734;28;20247;-79
2022/09/11 10:42:22;;;;;;;3.38;3.08;;;;;;;23.81;50.09;97586.25;4879515;28;20173;-79
2022/09/11 10:44:49;;;;;;;3.80;3.42;;;;;;;24.23;48.23;97580.22;4876778;28;20184;-79
2022/09/11 10:47:17;;;;;;;4.45;4.15;;;;;;;24.32;45.73;97578.28;4859379;28;20705;-78
2022/09/11 10:49:44;;;;;;;4.38;3.88;;;;;;;24.19;46.70;97574.00;4875926;28;20196;-79
2022/09/11 10:52:09;;;;;;;4.47;4.07;;;;;;;24.42;45.91;97575.25;4844185;28;20255;-78
2022/09/11 10:54:53;;;;;;;3.60;3.30;;;;;;;24.65;45.39;97578.34;4875451;28;20300;-79
2022/09/11 10:57:39;;;;;;;4.07;3.23;;;;;;;24.78;45.12;97571.22;4859724;28;20218;-78
2022/09/11 11:00:19;;;;;;;3.90;2.97;;;;;;;24.99;45.83;97557.06;4890817;28;20279;-79
2022/09/11 11:02:57;;;;;;;3.83;2.67;;;;;;;25.07;45.22;97560.72;4875034;28;20275;-79
2022/09/11 11:05:41;;;;;;;3.33;2.70;;;;;;;25.49;42.64;97574.69;4858691;28;20207;-79
2022/09/11 11:08:34;;;;;;;3.55;3.25;;;;;;;25.56;41.67;97569.59;4873690;28;20296;-78
2022/09/11 11:11:32;;;;;;;2.85;2.65;;;;;;;25.85;44.07;97565.16;4857821;28;20283;-78
2022/09/11 11:14:06;;;;;;;3.33;2.60;;;;;;;26.55;40.11;97564.13;4865502;28;20646;-79
2022/09/11 11:16:52;;;;;;;2.83;2.63;;;;;;;26.63;41.04;97565.91;4890084;28;20279;-79
2022/09/11 11:19:40;;;;;;;2.60;2.40;;;;;;;26.83;40.64;97569.47;4873188;28;20257;-78
2022/09/11 11:22:23;;;;;;;4.38;3.13;;;;;;;26.51;40.79;97565.91;4874306;28;20204;-78
2022/09/11 11:25:13;;;;;;;3.60;2.55;;;;;;;26.62;40.26;97561.66;4890173;28;20228;-79
2022/09/11 11:27:59;;;;;;;3.13;2.38;;;;;;;25.87;43.76;97564.81;4873131;28;20439;-78
2022/09/11 11:30:49;;;;;;;3.97;2.38;;;;;;;25.89;41.95;97562.56;4857128;28;20250;-78
2022/09/11 11:34:08;;;;;;;3.22;2.10;;;;;;;25.77;42.13;97563.38;4873152;28;20350;-80
2022/09/11 11:36:44;;;;;;;2.63;2.42;;;;;;;25.74;43.17;97561.38;4829435;29;20230;-78
2022/09/11 11:39:47;;;;;;;2.40;2.20;;;;;;;25.73;41.75;97560.59;4815028;29;20218;-77
2022/09/11 11:42:29;;;;;;;3.33;2.05;;;;;;;25.87;40.39;97562.91;4884086;28;20244;-78
2022/09/11 11:45:03;;;;;;;2.38;2.17;;;;;;;25.90;40.98;97564.91;4855718;28;20650;-78
2022/09/11 11:47:32;;;;;;;1.92;1.52;;;;;;;25.76;41.88;97570.59;4873079;28;20180;-78
2022/09/11 11:50:05;;;;;;;3.22;2.60;;;;;;;25.86;42.35;97561.38;4856814;28;20287;-79
2022/09/11 11:52:30;;;;;;;2.70;2.50;;;;;;;25.73;42.61;97567.81;4857675;28;20303;-78
2022/09/11 11:55:17;;;;;;;2.33;2.13;;;;;;;25.16;43.50;97564.09;4857333;28;20255;-79
2022/09/11 11:57:59;;;;;;;2.95;2.75;;;;;;;24.42;45.44;97575.25;4871757;28;20212;-78
2022/09/11 12:00:27;;;;;;;3.25;2.90;;;;;;;24.37;45.27;97567.44;4855918;28;20174;-79